CSZ9849 ZGSZ-ZGHA
Flight info
| Callsign | CSZ9849 |
|---|---|
| Flight time | 1h 28m |
| Altitude | 37100 |
| Route | IDUMA1 IDUMA W22 YIN A461 MEXON MEX1W |
| Aircraft | A319/M-SDE3FGHIRWY/LB1 |
Departure
| Time | 2026-04-26 04:05 |
|---|---|
| Airport | Shenzhen Bao'an International Airport (ZGSZ) |
Arrival
| Time | 2026-04-26 05:33 |
|---|---|
| Airport | Changsha Huanghua International Airport (ZGHA) |
| Time | Latitude | Longitude | Altitude | Speed | Heading |
|---|---|---|---|---|---|
| 2026-04-26 02:54 | 22.63451 | 113.80363 | 16 ft | 0 kts | 63° |
| 2026-04-26 03:53 | 22.63440 | 113.80341 | 15 ft | 4 kts | 59° |
| 2026-04-26 03:53 | 22.63425 | 113.80317 | 17 ft | 4 kts | 44° |
| 2026-04-26 03:53 | 22.63405 | 113.80304 | 16 ft | 4 kts | 353° |
| 2026-04-26 03:53 | 22.63397 | 113.80305 | 15 ft | 0 kts | 333° |
| 2026-04-26 03:58 | 22.63403 | 113.80302 | 16 ft | 6 kts | 333° |
| 2026-04-26 03:58 | 22.63477 | 113.80262 | 15 ft | 19 kts | 333° |
| 2026-04-26 03:58 | 22.63601 | 113.80194 | 15 ft | 20 kts | 333° |
| 2026-04-26 03:58 | 22.63696 | 113.80141 | 15 ft | 11 kts | 333° |
| 2026-04-26 03:59 | 22.63766 | 113.80157 | 15 ft | 13 kts | 60° |
| 2026-04-26 03:59 | 22.63810 | 113.80252 | 15 ft | 15 kts | 63° |
| 2026-04-26 03:59 | 22.63863 | 113.80365 | 15 ft | 18 kts | 63° |
| 2026-04-26 03:59 | 22.63923 | 113.80495 | 16 ft | 21 kts | 63° |
| 2026-04-26 04:00 | 22.63987 | 113.80631 | 17 ft | 20 kts | 63° |
| 2026-04-26 04:00 | 22.64040 | 113.80743 | 15 ft | 11 kts | 62° |
| 2026-04-26 04:00 | 22.64108 | 113.80745 | 15 ft | 12 kts | 333° |
| 2026-04-26 04:00 | 22.64208 | 113.80690 | 15 ft | 21 kts | 333° |
| 2026-04-26 04:01 | 22.64325 | 113.80627 | 15 ft | 18 kts | 333° |
| 2026-04-26 04:01 | 22.64447 | 113.80560 | 15 ft | 21 kts | 333° |
| 2026-04-26 04:01 | 22.64574 | 113.80490 | 15 ft | 21 kts | 333° |
| 2026-04-26 04:01 | 22.64707 | 113.80417 | 15 ft | 19 kts | 333° |
| 2026-04-26 04:02 | 22.64828 | 113.80350 | 17 ft | 19 kts | 333° |
| 2026-04-26 04:02 | 22.64951 | 113.80282 | 16 ft | 20 kts | 333° |
| 2026-04-26 04:02 | 22.65078 | 113.80213 | 16 ft | 20 kts | 332° |
| 2026-04-26 04:02 | 22.65186 | 113.80167 | 16 ft | 14 kts | 10° |
| 2026-04-26 04:03 | 22.65234 | 113.80236 | 15 ft | 2 kts | 64° |
| 2026-04-26 04:03 | 22.65239 | 113.80246 | 16 ft | 8 kts | 64° |
| 2026-04-26 04:03 | 22.65248 | 113.80333 | 17 ft | 14 kts | 132° |
| 2026-04-26 04:03 | 22.65219 | 113.80352 | 15 ft | 0 kts | 153° |
| 2026-04-26 04:04 | 22.65164 | 113.80382 | 16 ft | 31 kts | 153° |
| 2026-04-26 04:04 | 22.64782 | 113.80592 | 16 ft | 91 kts | 153° |
| 2026-04-26 04:04 | 22.64046 | 113.80995 | 16 ft | 145 kts | 153° |
| 2026-04-26 04:04 | 22.63053 | 113.81530 | 372 ft | 161 kts | 156° |
| 2026-04-26 04:05 | 22.62051 | 113.82055 | 1046 ft | 160 kts | 153° |
| 2026-04-26 04:05 | 22.61061 | 113.82599 | 1715 ft | 160 kts | 152° |
| 2026-04-26 04:05 | 22.60034 | 113.83169 | 2123 ft | 178 kts | 152° |
| 2026-04-26 04:05 | 22.58857 | 113.83822 | 2475 ft | 202 kts | 152° |
| 2026-04-26 04:06 | 22.57556 | 113.84540 | 3101 ft | 214 kts | 153° |
| 2026-04-26 04:06 | 22.56205 | 113.85281 | 3863 ft | 226 kts | 153° |
| 2026-04-26 04:06 | 22.54738 | 113.86087 | 4474 ft | 244 kts | 153° |
| 2026-04-26 04:06 | 22.53207 | 113.86926 | 5371 ft | 249 kts | 153° |
| 2026-04-26 04:07 | 22.51715 | 113.87904 | 6299 ft | 254 kts | 138° |
| 2026-04-26 04:07 | 22.50726 | 113.89503 | 7143 ft | 263 kts | 109° |
| 2026-04-26 04:07 | 22.50580 | 113.91473 | 7978 ft | 269 kts | 78° |
| 2026-04-26 04:07 | 22.51265 | 113.93325 | 8853 ft | 272 kts | 61° |
| 2026-04-26 04:08 | 22.52143 | 113.95145 | 9729 ft | 275 kts | 61° |
| 2026-04-26 04:08 | 22.53032 | 113.96994 | 10518 ft | 279 kts | 61° |
| 2026-04-26 04:08 | 22.53938 | 113.98862 | 11287 ft | 282 kts | 58° |
| 2026-04-26 04:08 | 22.55173 | 114.00514 | 12047 ft | 284 kts | 40° |
| 2026-04-26 04:09 | 22.56838 | 114.01685 | 12669 ft | 293 kts | 22° |
| 2026-04-26 04:09 | 22.58873 | 114.02246 | 12918 ft | 314 kts | 4° |
| 2026-04-26 04:09 | 22.61130 | 114.02462 | 13112 ft | 337 kts | 3° |
| 2026-04-26 04:09 | 22.63507 | 114.02687 | 13358 ft | 356 kts | 4° |
| 2026-04-26 04:10 | 22.65999 | 114.02931 | 13917 ft | 363 kts | 4° |
| 2026-04-26 04:10 | 22.68522 | 114.02853 | 14468 ft | 365 kts | 349° |
| 2026-04-26 04:10 | 22.70950 | 114.02039 | 14751 ft | 366 kts | 333° |
| 2026-04-26 04:10 | 22.73046 | 114.00494 | 14832 ft | 365 kts | 316° |
| 2026-04-26 04:11 | 22.74683 | 113.98415 | 14846 ft | 364 kts | 307° |
| 2026-04-26 04:11 | 22.76233 | 113.96233 | 14914 ft | 367 kts | 307° |
| 2026-04-26 04:11 | 22.77806 | 113.94040 | 15490 ft | 369 kts | 307° |
| 2026-04-26 04:11 | 22.79396 | 113.91841 | 16055 ft | 372 kts | 307° |
| 2026-04-26 04:12 | 22.80981 | 113.89653 | 16612 ft | 376 kts | 307° |
| 2026-04-26 04:12 | 22.82599 | 113.87417 | 17187 ft | 379 kts | 307° |
| 2026-04-26 04:12 | 22.84235 | 113.85158 | 17772 ft | 383 kts | 307° |
| 2026-04-26 04:12 | 22.85886 | 113.82875 | 18326 ft | 387 kts | 307° |
| 2026-04-26 04:13 | 22.87548 | 113.80572 | 18825 ft | 390 kts | 307° |
| 2026-04-26 04:13 | 22.89278 | 113.78292 | 19367 ft | 392 kts | 313° |
| 2026-04-26 04:13 | 22.91382 | 113.76397 | 19935 ft | 395 kts | 326° |
| 2026-04-26 04:13 | 22.93838 | 113.75037 | 20519 ft | 399 kts | 338° |
| 2026-04-26 04:14 | 22.96535 | 113.74293 | 21071 ft | 403 kts | 351° |
| 2026-04-26 04:14 | 22.99351 | 113.74171 | 21624 ft | 407 kts | 358° |
| 2026-04-26 04:14 | 23.02190 | 113.74187 | 22150 ft | 409 kts | 358° |
| 2026-04-26 04:14 | 23.05042 | 113.74202 | 22671 ft | 411 kts | 358° |
| 2026-04-26 04:15 | 23.07869 | 113.74219 | 23172 ft | 413 kts | 358° |
| 2026-04-26 04:15 | 23.10747 | 113.74231 | 23664 ft | 415 kts | 358° |
| 2026-04-26 04:15 | 23.13638 | 113.74238 | 24086 ft | 417 kts | 357° |
| 2026-04-26 04:15 | 23.16542 | 113.74242 | 24492 ft | 419 kts | 357° |
| 2026-04-26 04:16 | 23.19464 | 113.74246 | 24894 ft | 421 kts | 357° |
| 2026-04-26 04:16 | 23.22402 | 113.74249 | 25298 ft | 423 kts | 356° |
| 2026-04-26 04:16 | 23.25324 | 113.73931 | 25685 ft | 422 kts | 346° |
| 2026-04-26 04:16 | 23.28115 | 113.72977 | 26072 ft | 421 kts | 334° |
| 2026-04-26 04:17 | 23.30667 | 113.71428 | 26467 ft | 421 kts | 323° |
| 2026-04-26 04:17 | 23.32886 | 113.69349 | 26857 ft | 422 kts | 312° |
| 2026-04-26 04:17 | 23.34707 | 113.66849 | 27249 ft | 424 kts | 305° |
| 2026-04-26 04:17 | 23.36413 | 113.64274 | 27635 ft | 426 kts | 305° |
| 2026-04-26 04:18 | 23.38148 | 113.61653 | 28022 ft | 428 kts | 305° |
| 2026-04-26 04:18 | 23.39896 | 113.59018 | 28401 ft | 431 kts | 305° |
| 2026-04-26 04:18 | 23.41655 | 113.56372 | 28771 ft | 433 kts | 306° |
| 2026-04-26 04:18 | 23.43429 | 113.53705 | 29138 ft | 435 kts | 306° |
| 2026-04-26 04:19 | 23.45210 | 113.51028 | 29498 ft | 438 kts | 306° |
| 2026-04-26 04:19 | 23.46999 | 113.48333 | 29855 ft | 440 kts | 306° |
| 2026-04-26 04:19 | 23.48800 | 113.45624 | 30172 ft | 442 kts | 307° |
| 2026-04-26 04:19 | 23.50844 | 113.43173 | 30451 ft | 445 kts | 317° |
| 2026-04-26 04:20 | 23.53344 | 113.41168 | 30737 ft | 449 kts | 328° |
| 2026-04-26 04:20 | 23.56188 | 113.39740 | 31022 ft | 453 kts | 340° |
| 2026-04-26 04:20 | 23.59266 | 113.38979 | 31403 ft | 456 kts | 351° |
| 2026-04-26 04:20 | 23.62443 | 113.38901 | 31826 ft | 458 kts | 360° |
| 2026-04-26 04:21 | 23.65622 | 113.39054 | 32242 ft | 456 kts | 359° |
| 2026-04-26 04:21 | 23.68789 | 113.39203 | 32665 ft | 455 kts | 359° |
| 2026-04-26 04:21 | 23.71948 | 113.39350 | 33091 ft | 454 kts | 359° |
| 2026-04-26 04:21 | 23.75103 | 113.39491 | 33523 ft | 453 kts | 359° |
| 2026-04-26 04:22 | 23.78204 | 113.39629 | 33972 ft | 452 kts | 358° |
| 2026-04-26 04:22 | 23.81337 | 113.39769 | 34424 ft | 449 kts | 358° |
| 2026-04-26 04:22 | 23.84451 | 113.39912 | 34857 ft | 447 kts | 358° |
| 2026-04-26 04:22 | 23.87553 | 113.40054 | 35076 ft | 446 kts | 358° |
| 2026-04-26 04:23 | 23.90648 | 113.40197 | 35127 ft | 444 kts | 358° |
| 2026-04-26 04:23 | 23.96814 | 113.40482 | 35136 ft | 443 kts | 357° |
| 2026-04-26 04:24 | 24.02978 | 113.40761 | 35134 ft | 443 kts | 357° |
| 2026-04-26 04:24 | 24.09100 | 113.41045 | 35136 ft | 442 kts | 358° |
| 2026-04-26 04:25 | 24.15243 | 113.41329 | 35136 ft | 441 kts | 357° |
| 2026-04-26 04:25 | 24.21377 | 113.41599 | 35140 ft | 441 kts | 357° |
| 2026-04-26 04:26 | 24.27497 | 113.41811 | 35139 ft | 438 kts | 356° |
| 2026-04-26 04:26 | 24.33580 | 113.41990 | 35137 ft | 437 kts | 356° |
| 2026-04-26 04:27 | 24.39615 | 113.42167 | 35136 ft | 436 kts | 356° |
| 2026-04-26 04:27 | 24.45668 | 113.42331 | 35138 ft | 435 kts | 356° |
| 2026-04-26 04:28 | 24.51724 | 113.42501 | 35135 ft | 435 kts | 356° |
| 2026-04-26 04:28 | 24.57757 | 113.42671 | 35133 ft | 426 kts | 356° |
| 2026-04-26 04:28 | 24.60678 | 113.42757 | 35134 ft | 414 kts | 356° |
| 2026-04-26 04:29 | 24.63517 | 113.42840 | 35134 ft | 402 kts | 356° |
| 2026-04-26 04:29 | 24.66236 | 113.42919 | 35142 ft | 390 kts | 356° |
| 2026-04-26 04:29 | 24.68909 | 113.42997 | 35133 ft | 379 kts | 356° |
| 2026-04-26 04:30 | 24.79008 | 113.43287 | 35135 ft | 334 kts | 355° |
| 2026-04-26 04:31 | 24.83615 | 113.43406 | 35138 ft | 336 kts | 355° |
| 2026-04-26 04:31 | 24.88385 | 113.43524 | 35136 ft | 356 kts | 355° |
| 2026-04-26 04:32 | 24.93072 | 113.43652 | 35135 ft | 376 kts | 356° |
| 2026-04-26 04:32 | 24.95723 | 113.43728 | 35137 ft | 387 kts | 356° |
| 2026-04-26 04:32 | 24.98454 | 113.43806 | 35135 ft | 397 kts | 356° |
| 2026-04-26 04:32 | 25.01254 | 113.43884 | 35135 ft | 408 kts | 356° |
| 2026-04-26 04:33 | 25.04125 | 113.43965 | 35135 ft | 418 kts | 356° |
| 2026-04-26 04:33 | 25.09990 | 113.44136 | 35135 ft | 429 kts | 356° |
| 2026-04-26 04:34 | 25.15968 | 113.44321 | 35135 ft | 430 kts | 356° |
| 2026-04-26 04:34 | 25.21959 | 113.44501 | 35152 ft | 431 kts | 357° |
| 2026-04-26 04:35 | 25.27918 | 113.44674 | 35127 ft | 422 kts | 357° |
| 2026-04-26 04:35 | 25.33786 | 113.44831 | 35131 ft | 417 kts | 356° |
| 2026-04-26 04:35 | 25.36612 | 113.44907 | 35129 ft | 406 kts | 356° |
| 2026-04-26 04:36 | 25.39410 | 113.44994 | 35132 ft | 400 kts | 356° |
| 2026-04-26 04:36 | 25.45065 | 113.45164 | 35135 ft | 413 kts | 356° |
| 2026-04-26 04:37 | 25.50910 | 113.45324 | 35150 ft | 425 kts | 356° |
| 2026-04-26 04:37 | 25.56840 | 113.45491 | 35134 ft | 427 kts | 356° |
| 2026-04-26 04:38 | 25.62734 | 113.45660 | 35127 ft | 426 kts | 356° |
| 2026-04-26 04:38 | 25.68668 | 113.45831 | 34816 ft | 427 kts | 356° |
| 2026-04-26 04:38 | 25.71633 | 113.45916 | 34463 ft | 424 kts | 357° |
| 2026-04-26 04:39 | 25.74561 | 113.46002 | 34115 ft | 419 kts | 357° |
| 2026-04-26 04:39 | 25.77465 | 113.46089 | 33735 ft | 414 kts | 357° |
| 2026-04-26 04:39 | 25.80330 | 113.46177 | 33357 ft | 410 kts | 357° |
| 2026-04-26 04:39 | 25.83163 | 113.46265 | 32966 ft | 405 kts | 357° |
| 2026-04-26 04:40 | 25.85967 | 113.46351 | 32576 ft | 402 kts | 357° |
| 2026-04-26 04:40 | 25.88768 | 113.46433 | 32199 ft | 403 kts | 357° |
| 2026-04-26 04:40 | 25.91536 | 113.46511 | 31830 ft | 404 kts | 356° |
| 2026-04-26 04:40 | 25.94350 | 113.46592 | 31464 ft | 406 kts | 357° |
| 2026-04-26 04:41 | 25.97179 | 113.46671 | 31100 ft | 406 kts | 357° |
| 2026-04-26 04:41 | 25.99991 | 113.46759 | 30737 ft | 402 kts | 357° |
| 2026-04-26 04:41 | 26.02769 | 113.46852 | 30389 ft | 398 kts | 357° |
| 2026-04-26 04:41 | 26.05526 | 113.46939 | 30035 ft | 394 kts | 357° |
| 2026-04-26 04:42 | 26.08250 | 113.47024 | 29630 ft | 391 kts | 357° |
| 2026-04-26 04:42 | 26.10969 | 113.47111 | 29226 ft | 391 kts | 357° |
| 2026-04-26 04:42 | 26.13683 | 113.47199 | 28829 ft | 389 kts | 357° |
| 2026-04-26 04:42 | 26.16345 | 113.47283 | 28437 ft | 387 kts | 357° |
| 2026-04-26 04:43 | 26.19030 | 113.47366 | 28048 ft | 385 kts | 357° |
| 2026-04-26 04:43 | 26.21706 | 113.47446 | 27665 ft | 384 kts | 357° |
| 2026-04-26 04:43 | 26.24370 | 113.47531 | 27288 ft | 382 kts | 357° |
| 2026-04-26 04:43 | 26.27017 | 113.47617 | 26916 ft | 380 kts | 357° |
| 2026-04-26 04:44 | 26.29646 | 113.47697 | 26541 ft | 377 kts | 357° |
| 2026-04-26 04:44 | 26.32259 | 113.47776 | 26179 ft | 375 kts | 357° |
| 2026-04-26 04:44 | 26.34858 | 113.47854 | 25817 ft | 372 kts | 357° |
| 2026-04-26 04:44 | 26.37402 | 113.47933 | 25471 ft | 369 kts | 357° |
| 2026-04-26 04:45 | 26.39960 | 113.48014 | 25123 ft | 367 kts | 357° |
| 2026-04-26 04:45 | 26.42505 | 113.48095 | 24778 ft | 365 kts | 357° |
| 2026-04-26 04:45 | 26.45034 | 113.48176 | 24437 ft | 363 kts | 357° |
| 2026-04-26 04:45 | 26.47550 | 113.48256 | 24100 ft | 361 kts | 357° |
| 2026-04-26 04:46 | 26.50052 | 113.48334 | 23767 ft | 359 kts | 357° |
| 2026-04-26 04:46 | 26.52542 | 113.48410 | 23405 ft | 357 kts | 357° |
| 2026-04-26 04:46 | 26.55016 | 113.48487 | 23012 ft | 355 kts | 357° |
| 2026-04-26 04:46 | 26.57480 | 113.48563 | 22622 ft | 353 kts | 357° |
| 2026-04-26 04:47 | 26.59902 | 113.48638 | 22242 ft | 352 kts | 357° |
| 2026-04-26 04:47 | 26.62345 | 113.48714 | 21862 ft | 351 kts | 358° |
| 2026-04-26 04:47 | 26.64777 | 113.48792 | 21496 ft | 349 kts | 358° |
| 2026-04-26 04:47 | 26.67196 | 113.48868 | 21126 ft | 347 kts | 358° |
| 2026-04-26 04:48 | 26.72007 | 113.49018 | 20392 ft | 344 kts | 358° |
| 2026-04-26 04:48 | 26.74392 | 113.49090 | 20038 ft | 342 kts | 358° |
| 2026-04-26 04:48 | 26.76762 | 113.49163 | 19682 ft | 340 kts | 358° |
| 2026-04-26 04:49 | 26.79123 | 113.49237 | 19336 ft | 339 kts | 358° |
| 2026-04-26 04:49 | 26.81477 | 113.49313 | 18994 ft | 338 kts | 358° |
| 2026-04-26 04:49 | 26.83792 | 113.49388 | 18732 ft | 336 kts | 358° |
| 2026-04-26 04:49 | 26.86125 | 113.49464 | 18686 ft | 336 kts | 358° |
| 2026-04-26 04:50 | 26.88471 | 113.49540 | 18524 ft | 337 kts | 358° |
| 2026-04-26 04:50 | 26.90809 | 113.49616 | 18302 ft | 336 kts | 358° |
| 2026-04-26 04:50 | 26.93139 | 113.49690 | 18045 ft | 334 kts | 358° |
| 2026-04-26 04:50 | 26.95460 | 113.49760 | 17782 ft | 333 kts | 358° |
| 2026-04-26 04:51 | 26.97772 | 113.49829 | 17532 ft | 332 kts | 358° |
| 2026-04-26 04:51 | 27.00074 | 113.49899 | 17279 ft | 330 kts | 358° |
| 2026-04-26 04:51 | 27.02336 | 113.49971 | 17028 ft | 329 kts | 358° |
| 2026-04-26 04:51 | 27.04613 | 113.50044 | 16771 ft | 327 kts | 358° |
| 2026-04-26 04:52 | 27.06890 | 113.50118 | 16531 ft | 326 kts | 358° |
| 2026-04-26 04:52 | 27.09157 | 113.50193 | 16282 ft | 325 kts | 358° |
| 2026-04-26 04:52 | 27.11411 | 113.50265 | 16037 ft | 324 kts | 358° |
| 2026-04-26 04:52 | 27.13660 | 113.50335 | 15793 ft | 322 kts | 358° |
| 2026-04-26 04:53 | 27.15896 | 113.50404 | 15553 ft | 321 kts | 358° |
| 2026-04-26 04:53 | 27.18125 | 113.50474 | 15313 ft | 320 kts | 358° |
| 2026-04-26 04:53 | 27.20315 | 113.50543 | 15089 ft | 319 kts | 358° |
| 2026-04-26 04:53 | 27.21810 | 113.50588 | 14931 ft | 317 kts | 358° |
| 2026-04-26 04:54 | 27.24709 | 113.50402 | 14621 ft | 313 kts | 349° |
| 2026-04-26 04:54 | 27.26840 | 113.49963 | 14379 ft | 310 kts | 343° |
| 2026-04-26 04:54 | 27.28898 | 113.49278 | 14152 ft | 308 kts | 339° |
| 2026-04-26 04:54 | 27.30929 | 113.48527 | 13927 ft | 307 kts | 339° |
| 2026-04-26 04:55 | 27.32952 | 113.47784 | 13677 ft | 305 kts | 339° |
| 2026-04-26 04:55 | 27.34969 | 113.47048 | 13415 ft | 304 kts | 339° |
| 2026-04-26 04:55 | 27.36950 | 113.46328 | 13164 ft | 303 kts | 339° |
| 2026-04-26 04:55 | 27.38947 | 113.45601 | 12912 ft | 301 kts | 340° |
| 2026-04-26 04:56 | 27.40938 | 113.44872 | 12652 ft | 300 kts | 340° |
| 2026-04-26 04:56 | 27.42918 | 113.44143 | 12402 ft | 299 kts | 340° |
| 2026-04-26 04:56 | 27.44887 | 113.43418 | 12172 ft | 297 kts | 340° |
| 2026-04-26 04:56 | 27.46848 | 113.42698 | 12074 ft | 296 kts | 340° |
| 2026-04-26 04:57 | 27.48828 | 113.42050 | 12086 ft | 298 kts | 345° |
| 2026-04-26 04:57 | 27.50881 | 113.41662 | 11978 ft | 300 kts | 352° |
| 2026-04-26 04:57 | 27.52960 | 113.41554 | 11811 ft | 298 kts | 357° |
| 2026-04-26 04:57 | 27.54984 | 113.41537 | 11639 ft | 291 kts | 357° |
| 2026-04-26 04:58 | 27.56984 | 113.41517 | 11467 ft | 284 kts | 357° |
| 2026-04-26 04:58 | 27.58940 | 113.41494 | 11293 ft | 278 kts | 357° |
| 2026-04-26 04:58 | 27.60854 | 113.41468 | 11132 ft | 273 kts | 357° |
| 2026-04-26 04:58 | 27.62752 | 113.41575 | 10965 ft | 273 kts | 4° |
| 2026-04-26 04:59 | 27.64622 | 113.41937 | 10797 ft | 273 kts | 11° |
| 2026-04-26 04:59 | 27.66445 | 113.42551 | 10634 ft | 274 kts | 18° |
| 2026-04-26 04:59 | 27.68192 | 113.43411 | 10468 ft | 273 kts | 25° |
| 2026-04-26 04:59 | 27.69812 | 113.44476 | 10306 ft | 273 kts | 30° |
| 2026-04-26 05:00 | 27.71419 | 113.45609 | 10146 ft | 272 kts | 29° |
| 2026-04-26 05:00 | 27.73025 | 113.46735 | 9977 ft | 271 kts | 29° |
| 2026-04-26 05:00 | 27.74622 | 113.47854 | 9817 ft | 270 kts | 29° |
| 2026-04-26 05:00 | 27.76216 | 113.48968 | 9637 ft | 270 kts | 30° |
| 2026-04-26 05:01 | 27.77808 | 113.50081 | 9455 ft | 269 kts | 29° |
| 2026-04-26 05:01 | 27.79410 | 113.51179 | 9277 ft | 268 kts | 26° |
| 2026-04-26 05:01 | 27.81084 | 113.52085 | 9103 ft | 267 kts | 19° |
| 2026-04-26 05:01 | 27.82835 | 113.52765 | 8925 ft | 266 kts | 13° |
| 2026-04-26 05:02 | 27.84611 | 113.53208 | 8749 ft | 264 kts | 7° |
| 2026-04-26 05:02 | 27.86433 | 113.53431 | 8576 ft | 263 kts | 2° |
| 2026-04-26 05:02 | 27.88262 | 113.53590 | 8401 ft | 264 kts | 1° |
| 2026-04-26 05:02 | 27.89472 | 113.53695 | 8289 ft | 263 kts | 1° |
| 2026-04-26 05:03 | 27.91911 | 113.53911 | 8054 ft | 263 kts | 2° |
| 2026-04-26 05:03 | 27.93742 | 113.54075 | 7884 ft | 265 kts | 2° |
| 2026-04-26 05:03 | 27.95578 | 113.54239 | 7711 ft | 265 kts | 2° |
| 2026-04-26 05:03 | 27.97415 | 113.54404 | 7543 ft | 264 kts | 3° |
| 2026-04-26 05:04 | 27.99223 | 113.54566 | 7378 ft | 265 kts | 3° |
| 2026-04-26 05:04 | 28.01061 | 113.54733 | 7214 ft | 265 kts | 3° |
| 2026-04-26 05:04 | 28.02894 | 113.54898 | 7044 ft | 264 kts | 4° |
| 2026-04-26 05:04 | 28.04727 | 113.55063 | 6878 ft | 265 kts | 4° |
| 2026-04-26 05:05 | 28.06564 | 113.55231 | 6717 ft | 266 kts | 4° |
| 2026-04-26 05:05 | 28.08406 | 113.55398 | 6550 ft | 265 kts | 3° |
| 2026-04-26 05:05 | 28.10248 | 113.55562 | 6384 ft | 266 kts | 4° |
| 2026-04-26 05:05 | 28.12094 | 113.55716 | 6230 ft | 265 kts | 3° |
| 2026-04-26 05:06 | 28.13910 | 113.55846 | 6112 ft | 265 kts | 2° |
| 2026-04-26 05:06 | 28.15748 | 113.55966 | 5980 ft | 265 kts | 2° |
| 2026-04-26 05:06 | 28.17587 | 113.56083 | 5851 ft | 264 kts | 2° |
| 2026-04-26 05:06 | 28.19421 | 113.56204 | 5723 ft | 262 kts | 2° |
| 2026-04-26 05:07 | 28.21216 | 113.56325 | 5592 ft | 254 kts | 2° |
| 2026-04-26 05:07 | 28.22951 | 113.56443 | 5466 ft | 245 kts | 2° |
| 2026-04-26 05:07 | 28.24641 | 113.56560 | 5345 ft | 241 kts | 2° |
| 2026-04-26 05:07 | 28.26305 | 113.56671 | 5228 ft | 239 kts | 3° |
| 2026-04-26 05:08 | 28.27404 | 113.56748 | 5137 ft | 240 kts | 3° |
| 2026-04-26 05:08 | 28.29621 | 113.56906 | 4977 ft | 241 kts | 2° |
| 2026-04-26 05:08 | 28.31294 | 113.57025 | 4854 ft | 240 kts | 3° |
| 2026-04-26 05:08 | 28.32963 | 113.57142 | 4736 ft | 241 kts | 3° |
| 2026-04-26 05:09 | 28.34625 | 113.57258 | 4602 ft | 239 kts | 2° |
| 2026-04-26 05:09 | 28.36266 | 113.57023 | 4476 ft | 238 kts | 340° |
| 2026-04-26 05:09 | 28.37716 | 113.56164 | 4350 ft | 234 kts | 320° |
| 2026-04-26 05:09 | 28.38805 | 113.54833 | 4226 ft | 229 kts | 299° |
| 2026-04-26 05:10 | 28.39437 | 113.53221 | 4108 ft | 226 kts | 281° |
| 2026-04-26 05:10 | 28.39618 | 113.51461 | 3988 ft | 226 kts | 270° |
| 2026-04-26 05:10 | 28.39708 | 113.49693 | 3867 ft | 224 kts | 270° |
| 2026-04-26 05:10 | 28.39803 | 113.47930 | 3749 ft | 223 kts | 271° |
| 2026-04-26 05:11 | 28.39917 | 113.46165 | 3664 ft | 225 kts | 272° |
| 2026-04-26 05:11 | 28.40069 | 113.44392 | 3550 ft | 225 kts | 272° |
| 2026-04-26 05:11 | 28.40230 | 113.42621 | 3462 ft | 225 kts | 272° |
| 2026-04-26 05:11 | 28.40337 | 113.41456 | 3395 ft | 222 kts | 272° |
| 2026-04-26 05:12 | 28.40545 | 113.39156 | 3255 ft | 218 kts | 271° |
| 2026-04-26 05:12 | 28.40697 | 113.37464 | 3156 ft | 214 kts | 272° |
| 2026-04-26 05:12 | 28.40847 | 113.35779 | 3058 ft | 216 kts | 271° |
| 2026-04-26 05:12 | 28.40979 | 113.34099 | 2941 ft | 210 kts | 267° |
| 2026-04-26 05:13 | 28.40916 | 113.32470 | 2841 ft | 205 kts | 263° |
| 2026-04-26 05:13 | 28.40839 | 113.30856 | 2741 ft | 206 kts | 264° |
| 2026-04-26 05:13 | 28.40788 | 113.29777 | 2672 ft | 207 kts | 264° |
| 2026-04-26 05:13 | 28.40685 | 113.27602 | 2543 ft | 205 kts | 264° |
| 2026-04-26 05:14 | 28.40610 | 113.26006 | 2454 ft | 205 kts | 264° |
| 2026-04-26 05:14 | 28.40537 | 113.24387 | 2352 ft | 207 kts | 262° |
| 2026-04-26 05:14 | 28.40438 | 113.22759 | 2331 ft | 203 kts | 258° |
| 2026-04-26 05:14 | 28.39958 | 113.21287 | 2322 ft | 198 kts | 226° |
| 2026-04-26 05:15 | 28.38772 | 113.20646 | 2313 ft | 193 kts | 179° |
| 2026-04-26 05:15 | 28.37486 | 113.21074 | 2313 ft | 193 kts | 160° |
| 2026-04-26 05:15 | 28.36223 | 113.21336 | 2326 ft | 181 kts | 182° |
| 2026-04-26 05:15 | 28.34967 | 113.21375 | 2303 ft | 179 kts | 178° |
| 2026-04-26 05:16 | 28.33715 | 113.21453 | 2317 ft | 179 kts | 178° |
| 2026-04-26 05:16 | 28.32475 | 113.21530 | 2290 ft | 175 kts | 177° |
| 2026-04-26 05:16 | 28.31311 | 113.21602 | 2144 ft | 166 kts | 177° |
| 2026-04-26 05:16 | 28.30166 | 113.21672 | 1970 ft | 163 kts | 177° |
| 2026-04-26 05:17 | 28.29074 | 113.21740 | 1784 ft | 149 kts | 177° |
| 2026-04-26 05:17 | 28.28083 | 113.21801 | 1611 ft | 137 kts | 177° |
| 2026-04-26 05:17 | 28.27164 | 113.21858 | 1425 ft | 128 kts | 177° |
| 2026-04-26 05:17 | 28.26285 | 113.21911 | 1266 ft | 125 kts | 177° |
| 2026-04-26 05:18 | 28.25402 | 113.21969 | 1146 ft | 130 kts | 172° |
| 2026-04-26 05:18 | 28.24570 | 113.22155 | 1509 ft | 118 kts | 166° |
| 2026-04-26 05:18 | 28.23674 | 113.22381 | 1850 ft | 150 kts | 173° |
| 2026-04-26 05:18 | 28.22595 | 113.22599 | 2173 ft | 169 kts | 168° |
| 2026-04-26 05:19 | 28.21352 | 113.22946 | 2279 ft | 195 kts | 167° |
| 2026-04-26 05:19 | 28.20024 | 113.23332 | 2304 ft | 199 kts | 166° |
| 2026-04-26 05:19 | 28.18710 | 113.23716 | 2290 ft | 187 kts | 166° |
| 2026-04-26 05:19 | 28.17435 | 113.24081 | 2302 ft | 195 kts | 166° |
| 2026-04-26 05:20 | 28.16113 | 113.24522 | 2308 ft | 200 kts | 155° |
| 2026-04-26 05:20 | 28.15064 | 113.25545 | 2316 ft | 203 kts | 124° |
| 2026-04-26 05:20 | 28.14666 | 113.27061 | 2311 ft | 206 kts | 91° |
| 2026-04-26 05:20 | 28.15072 | 113.28600 | 2312 ft | 213 kts | 58° |
| 2026-04-26 05:21 | 28.15779 | 113.29404 | 2303 ft | 215 kts | 34° |
| 2026-04-26 05:21 | 28.17583 | 113.30381 | 2303 ft | 219 kts | 25° |
| 2026-04-26 05:21 | 28.18965 | 113.31115 | 2308 ft | 219 kts | 26° |
| 2026-04-26 05:21 | 28.20344 | 113.31854 | 2319 ft | 219 kts | 27° |
| 2026-04-26 05:22 | 28.21720 | 113.32592 | 2309 ft | 218 kts | 27° |
| 2026-04-26 05:22 | 28.23090 | 113.33329 | 2298 ft | 218 kts | 28° |
| 2026-04-26 05:22 | 28.24454 | 113.34059 | 2421 ft | 213 kts | 24° |
| 2026-04-26 05:22 | 28.25842 | 113.34424 | 3296 ft | 203 kts | 3° |
| 2026-04-26 05:23 | 28.27325 | 113.34409 | 3721 ft | 222 kts | 357° |
| 2026-04-26 05:23 | 28.28867 | 113.34369 | 3834 ft | 229 kts | 358° |
| 2026-04-26 05:23 | 28.30485 | 113.34340 | 3453 ft | 236 kts | 358° |
| 2026-04-26 05:23 | 28.32158 | 113.34313 | 3134 ft | 243 kts | 358° |
| 2026-04-26 05:24 | 28.33823 | 113.34288 | 3005 ft | 236 kts | 358° |
| 2026-04-26 05:24 | 28.35454 | 113.34261 | 2875 ft | 233 kts | 358° |
| 2026-04-26 05:24 | 28.37050 | 113.34230 | 2753 ft | 227 kts | 357° |
| 2026-04-26 05:24 | 28.38625 | 113.34189 | 2624 ft | 225 kts | 355° |
| 2026-04-26 05:25 | 28.40059 | 113.33639 | 2513 ft | 217 kts | 317° |
| 2026-04-26 05:25 | 28.40661 | 113.32788 | 2437 ft | 204 kts | 290° |
| 2026-04-26 05:25 | 28.40719 | 113.30831 | 2327 ft | 184 kts | 250° |
| 2026-04-26 05:25 | 28.40523 | 113.29391 | 2295 ft | 185 kts | 263° |
| 2026-04-26 05:26 | 28.40493 | 113.27989 | 2298 ft | 173 kts | 265° |
| 2026-04-26 05:26 | 28.40483 | 113.26655 | 2299 ft | 167 kts | 266° |
| 2026-04-26 05:26 | 28.40466 | 113.25341 | 2293 ft | 166 kts | 266° |
| 2026-04-26 05:26 | 28.40439 | 113.24023 | 2297 ft | 167 kts | 263° |
| 2026-04-26 05:27 | 28.40400 | 113.22698 | 2298 ft | 165 kts | 263° |
| 2026-04-26 05:27 | 28.39984 | 113.21544 | 2305 ft | 156 kts | 221° |
| 2026-04-26 05:27 | 28.39041 | 113.21208 | 2299 ft | 143 kts | 175° |
| 2026-04-26 05:27 | 28.38082 | 113.21331 | 2293 ft | 137 kts | 185° |
| 2026-04-26 05:28 | 28.37138 | 113.21306 | 2316 ft | 138 kts | 180° |
| 2026-04-26 05:28 | 28.36194 | 113.21334 | 2325 ft | 136 kts | 178° |
| 2026-04-26 05:28 | 28.35268 | 113.21375 | 2296 ft | 133 kts | 179° |
| 2026-04-26 05:28 | 28.34331 | 113.21428 | 2314 ft | 136 kts | 178° |
| 2026-04-26 05:29 | 28.33390 | 113.21479 | 2321 ft | 136 kts | 178° |
| 2026-04-26 05:29 | 28.32451 | 113.21534 | 2301 ft | 136 kts | 178° |
| 2026-04-26 05:29 | 28.31512 | 113.21590 | 2179 ft | 135 kts | 178° |
| 2026-04-26 05:29 | 28.30583 | 113.21647 | 2080 ft | 134 kts | 178° |
| 2026-04-26 05:30 | 28.29681 | 113.21702 | 1899 ft | 128 kts | 179° |
| 2026-04-26 05:30 | 28.28793 | 113.21757 | 1746 ft | 128 kts | 177° |
| 2026-04-26 05:30 | 28.27907 | 113.21811 | 1600 ft | 129 kts | 178° |
| 2026-04-26 05:30 | 28.27016 | 113.21866 | 1410 ft | 128 kts | 178° |
| 2026-04-26 05:31 | 28.26132 | 113.21919 | 1247 ft | 126 kts | 179° |
| 2026-04-26 05:31 | 28.25246 | 113.21974 | 1095 ft | 127 kts | 178° |
| 2026-04-26 05:31 | 28.24371 | 113.22028 | 942 ft | 125 kts | 178° |
| 2026-04-26 05:31 | 28.23793 | 113.22063 | 833 ft | 125 kts | 178° |
| 2026-04-26 05:32 | 28.22655 | 113.22133 | 595 ft | 122 kts | 178° |
| 2026-04-26 05:32 | 28.21804 | 113.22186 | 435 ft | 123 kts | 178° |
| 2026-04-26 05:32 | 28.21223 | 113.22221 | 326 ft | 124 kts | 179° |
| 2026-04-26 05:32 | 28.20134 | 113.22289 | 218 ft | 102 kts | 176° |
| 2026-04-26 05:33 | 28.19740 | 113.22313 | 212 ft | 69 kts | 177° |
| 2026-04-26 05:33 | 28.19318 | 113.22332 | 209 ft | 28 kts | 187° |
| 2026-04-26 05:33 | 28.19179 | 113.22279 | 213 ft | 19 kts | 204° |
| 2026-04-26 05:33 | 28.19047 | 113.22217 | 210 ft | 22 kts | 203° |
| 2026-04-26 05:34 | 28.18922 | 113.22170 | 213 ft | 15 kts | 186° |
| 2026-04-26 05:34 | 28.18833 | 113.22176 | 214 ft | 14 kts | 176° |
| 2026-04-26 05:34 | 28.18725 | 113.22183 | 211 ft | 17 kts | 178° |
| 2026-04-26 05:34 | 28.18598 | 113.22191 | 208 ft | 20 kts | 177° |
| 2026-04-26 05:35 | 28.18450 | 113.22200 | 208 ft | 23 kts | 177° |
| 2026-04-26 05:35 | 28.18298 | 113.22209 | 213 ft | 22 kts | 177° |
| 2026-04-26 05:35 | 28.18143 | 113.22217 | 213 ft | 15 kts | 177° |
| 2026-04-26 05:35 | 28.18080 | 113.22178 | 212 ft | 9 kts | 254° |
| 2026-04-26 05:36 | 28.18073 | 113.22116 | 217 ft | 11 kts | 264° |
| 2026-04-26 05:36 | 28.18083 | 113.22020 | 220 ft | 16 kts | 288° |
| 2026-04-26 05:36 | 28.18090 | 113.21891 | 219 ft | 18 kts | 265° |
| 2026-04-26 05:36 | 28.18149 | 113.21834 | 217 ft | 12 kts | 357° |
| 2026-04-26 05:37 | 28.18246 | 113.21828 | 219 ft | 16 kts | 357° |
| 2026-04-26 05:37 | 28.18368 | 113.21820 | 218 ft | 19 kts | 356° |
| 2026-04-26 05:37 | 28.18503 | 113.21811 | 213 ft | 18 kts | 357° |
| 2026-04-26 05:37 | 28.18584 | 113.21785 | 214 ft | 11 kts | 298° |
| 2026-04-26 05:38 | 28.18584 | 113.21703 | 212 ft | 9 kts | 266° |
| 2026-04-26 05:38 | 28.18580 | 113.21619 | 212 ft | 8 kts | 266° |
| 2026-04-26 05:38 | 28.18580 | 113.21576 | 212 ft | 7 kts | 277° |
| 2026-04-26 05:38 | 28.18614 | 113.21547 | 219 ft | 9 kts | 355° |
| 2026-04-26 05:39 | 28.18641 | 113.21544 | 216 ft | 2 kts | 356° |
| 2026-04-26 05:39 | 28.18654 | 113.21543 | 216 ft | 0 kts | 356° |